Tiempo atmosférico en la estación meteorológica de Alconchel, Badajoz (170 m.)



Fecha
DESCASC
Temp. máxima en grados centígrados (hora)
DESCASC
Temp. mínima en grados centígrados (hora)
DESCASC
Temp. media en grados centígrados
DESCASC
Racha de viento máxima en m/sg (hora)
DESCASC
Velocidad máxima media en intervalos de 10 minutos(hora)
DESCASC
Precipitaciones diarias en mm
DESCASC
Precipitaciones de 00:00 a 06:00 en mm
DESCASC
Precipitaciones de 06:00 a 12:00 en mm
DESCASC
Precipitaciones de 12:00 a 18:00 en mm
DESCASC
Precipitaciones de 18:00 a 24:00 en mm
DESCASC
16-01-2020 16.9 (15:30) 9.5 (08:30) 13.2 13.06 (22:20) 8.33 (15:40) 5.6 0 0 0 5.6
15-01-2020 16.8 (15:00) 9.4 (02:40) 13.1 11.39 (06:20) 7.78 (04:40) 0 0 0 0 0
14-01-2020 12.9 (16:30) 3.1 (08:00) 8 10 (17:20) 6.94 (17:20) 0 0 0 0 0
13-01-2020 13 (16:10) -0.7 (08:30) 6.2 4.17 (19:30) 3.06 (19:40) 0 0 0 0 0
12-01-2020 14.8 (16:10) 0.9 (00:00) 7.9 3.61 (02:10) 2.5 (19:20) 0 0 0 0 0
11-01-2020 14.1 (16:20) 2.6 (00:00) 8.4 7.78 (13:20) 5.28 (14:50) 0 0 0 0 0
10-01-2020 12.8 (16:30) 3.9 (00:00) 8.4 10.28 (13:40) 5.83 (13:30) 0 0 0 0 0
09-01-2020 14 (17:00) 1.6 (00:00) 7.8 4.72 (18:50) 3.06 (18:50) 0.2 0 0.2 0 0
08-01-2020 15.4 (17:10) 0.6 (00:00) 8 3.33 (13:10) 2.22 (13:10) 0 0 0 0 0
07-01-2020 14.5 (16:40) 2.2 (00:00) 8.4 4.72 (19:40) 3.33 (19:40) 0 0 0 0 0
06-01-2020 14.5 (16:10) 2.2 (00:00) 8.4 4.72 (16:40) 3.33 (17:10) 0 0 0 0 0
05-01-2020 13.8 (15:40) 3.3 (00:00) 8.6 6.39 (08:30) 4.17 (01:40) 0 0 0 0 0
04-01-2020 13.3 (16:00) 4.6 (00:00) 9 8.06 (16:20) 5.56 (16:50) 0 0 0 0 0
03-01-2020 14.4 (15:00) 8.4 (00:00) 11.4 5.28 (15:30) 3.33 (14:20) 0 0 0 0 0
02-01-2020 11.2 (18:10) 2.2 (00:00) 6.7 2.5 (21:50) 1.67 (18:30) 0.2 0.2 0 0 0
01-01-2020 14.8 (17:00) 2 (00:00) 8.4 3.06 (11:30) 2.22 (19:00) 0 0 0 0 0
31-12-2019 14.4 (16:30) 2.1 (00:00) 8.2 4.17 (14:10) 2.78 (19:20) 0 0 0 0 0
30-12-2019 15.5 (16:30) 3.6 (00:00) 9.5 3.61 (10:30) 2.5 (19:10) 0 0 0 0 0
29-12-2019 16.9 (16:10) 6.1 (00:00) 11.5 4.72 (00:30) 3.06 (16:30) 0 0 0 0 0
28-12-2019 18.2 (16:40) 7.9 (00:00) 13.1 6.67 (04:50) 4.72 (15:10) 0 0 0 0 0
27-12-2019 17.5 (16:20) 8.2 (00:00) 12.8 8.06 (16:30) 5.28 (16:30) 0 0 0 0 0
26-12-2019 15.1 (16:10) 9.2 (00:00) 12.2 8.33 (14:20) 5.28 (11:40) 0 0 0 0 0
25-12-2019 18.3 (15:40) 7.2 (00:00) 12.7 3.33 (11:30) 1.67 (11:30) 0 0 0 0 0
24-12-2019 18.6 (16:10) 7.5 (00:00) 13.1 6.67 (10:00) 3.89 (13:40) 0 0 0 0 0
23-12-2019 17.1 (15:50) 9.9 (00:00) 13.5 6.67 (19:10) 4.72 (19:10) 0 0 0 0 0
22-12-2019 17.6 (14:50) 11.9 (00:00) 14.8 11.11 (15:10) 7.78 (15:10) 0 0 0 0 0
21-12-2019 18.2 (14:00) 14.2 (00:00) 16.2 19.17 (14:40) 12.22 (14:40) 4.4 2.4 1.4 0.6 0
20-12-2019 18.1 (15:40) 15.3 (00:00) 16.7 20.28 (00:10) 13.06 (00:10) 14.4 11.4 1 0.2 1.8

Gráficas

Temp. máximas Temp. mínimas Temp. medias Precipitaciones Rachas de viento máximas Velocidades máximas media en intervalos de 10 minutos

Datos horarios

Fecha y hora oficial Temperatura (ºC) Velocidad del viento (km/h) Dirección del viento Racha (km/h) Dirección de racha Precipitación (mm) Presión (hPa) Tendencia (hPa) Humedad (%)
2020-01-18 23:00:00 12.5 17 Oeste 24 Oeste 0 -- -- 84
2020-01-18 22:00:00 12.8 14 Noroeste 30 Noroeste 0 -- -- 86
2020-01-18 21:00:00 13.4 16 Noroeste 24 Noroeste 0 -- -- 85
2020-01-18 20:00:00 13.7 13 Noroeste 23 Oeste 0 -- -- 86
2020-01-18 19:00:00 15 17 Oeste 27 Oeste 0 -- -- 80
2020-01-18 18:00:00 16.8 18 Noroeste 30 Noroeste 0 -- -- 73
2020-01-18 17:00:00 18.1 15 Noroeste 32 Oeste 0 -- -- 71
2020-01-18 16:00:00 18.2 18 Noroeste 27 Oeste 0 -- -- 74
2020-01-18 15:00:00 16.9 13 Noroeste 26 Oeste 0 -- -- 87
2020-01-18 14:00:00 14.9 21 Sudoeste 31 Sudoeste 1.4 -- -- 99
2020-01-18 13:00:00 14.7 23 Sudoeste 32 Sudoeste 1.2 -- -- 99
2020-01-18 12:00:00 14 25 Sudoeste 41 Sudoeste 0.4 -- -- 98
2020-01-18 11:00:00 13.4 23 Sudoeste 36 Sur 0.6 -- -- 99
2020-01-18 10:00:00 12.9 25 Sudoeste 38 Sudoeste 1.6 -- -- 99
2020-01-18 09:00:00 12.6 22 Sudoeste 38 Sur 0.6 -- -- 99
2020-01-18 08:00:00 12.1 23 Sur 36 Sur 3 -- -- 99
2020-01-18 07:00:00 11.5 20 Sur 28 Sur 3.6 -- -- 98
2020-01-18 06:00:00 11 8 Sur 12 Sur 1.2 -- -- 97
2020-01-18 05:00:00 11.1 9 Sudoeste 13 Sur 0.2 -- -- 94
2020-01-18 04:00:00 11 12 Sur 17 Sur 0 -- -- 94
2020-01-18 03:00:00 10.3 9 Sur 13 Sur 0 -- -- 94
2020-01-18 02:00:00 9.8 0 Calma 8 Sudeste 0 -- -- 97
2020-01-18 01:00:00 9.8 3 Sudeste 7 Sudeste 0 -- -- 97
2020-01-18 00:00:00 9.5 4 Sudeste 7 Sudeste 0 -- -- 97
2020-01-17 23:00:00 10.3 0 Calma 3 Este 0 -- -- 97
2020-01-17 22:00:00 10.3 0 Calma 6 Este 0 -- -- 97
2020-01-17 21:00:00 10.9 4 Este 6 Nordeste 0 -- -- 94
2020-01-17 20:00:00 12.1 0 Calma 2 Oeste 0 -- -- 91
2020-01-17 19:00:00 12.5 3 Oeste 5 Noroeste 0 -- -- 90
2020-01-17 18:00:00 13.6 3 Noroeste 6 Oeste 0 -- -- 86
2020-01-17 17:00:00 14.4 3 Oeste 10 Oeste 0 -- -- 82
2020-01-17 16:00:00 14.5 7 Oeste 15 Noroeste 0 -- -- 83
2020-01-17 15:00:00 13.8 6 Noroeste 12 Oeste 0 -- -- 85
2020-01-17 14:00:00 14.1 8 Oeste 13 Noroeste 0 -- -- 85
2020-01-17 13:00:00 13 3 Sudoeste 8 Oeste 0 -- -- 89
2020-01-17 12:00:00 12.2 2 Oeste 6 Sudoeste 0 -- -- 96
2020-01-17 11:00:00 11.5 0 Calma 5 Sudoeste 0 -- -- 99
2020-01-17 10:00:00 11.1 4 Oeste 7 Oeste 0 -- -- 99
2020-01-17 09:00:00 11.1 3 Oeste 5 Oeste 0 -- -- 99
2020-01-17 08:00:00 11 0 Calma 7 Sudoeste 0 -- -- 99
2020-01-17 07:00:00 11.3 4 Sur 9 Oeste 0 -- -- 99
2020-01-17 06:00:00 11.5 6 Sudoeste 8 Sudoeste 0 -- -- 99
2020-01-17 05:00:00 11.5 5 Sudoeste 8 Sudoeste 0 -- -- 98
2020-01-17 04:00:00 11.6 3 Noroeste 11 Oeste 0 -- -- 98
2020-01-17 03:00:00 12 3 Sudoeste 11 Sudoeste 0 -- -- 97
2020-01-17 02:00:00 11.6 6 Sudoeste 11 Sur 0 -- -- 97
2020-01-17 01:00:00 11.9 4 Sur 15 Sudoeste 0.2 -- -- 97
2020-01-17 00:00:00 12.1 10 Oeste 17 Oeste 2.2 -- -- 96
2020-01-16 23:00:00 12.1 8 Noroeste 47 Sudoeste 3.2 -- -- 93
2020-01-16 22:00:00 13.1 23 Sur 34 Sur 0.2 -- -- 88
2020-01-16 21:00:00 13 24 Sur 35 Sur 0 -- -- 86
2020-01-16 20:00:00 12.8 21 Sur 31 Sur 0 -- -- 81
2020-01-16 19:00:00 14 24 Sur 35 Sur 0 -- -- 71
2020-01-16 18:00:00 15.2 27 Sur 46 Sur 0 -- -- 65
2020-01-16 17:00:00 16.3 26 Sudoeste 45 Sur 0 -- -- 61
2020-01-16 16:00:00 16.5 28 Sudoeste 42 Sudoeste 0 -- -- 63
2020-01-16 15:00:00 16.3 26 Sudoeste 42 Sudoeste 0 -- -- 66
2020-01-16 14:00:00 16.2 24 Sudoeste 39 Sudoeste 0 -- -- 68
2020-01-16 13:00:00 15.1 24 Sudoeste 33 Sudoeste -- -- -- 76
2020-01-16 12:00:00 14.1 24 Sur 35 Sudoeste -- -- -- 86
2020-01-16 11:00:00 12 10 Sudoeste 14 Sudoeste 0 -- -- 92
2020-01-16 10:00:00 11.3 9 Sur 21 Sudeste 0 -- -- 92
2020-01-16 09:00:00 10.1 14 Sur 21 Sur 0 -- -- 95
2020-01-16 08:00:00 9.9 9 Sudeste 14 Sudeste 0 -- -- 95
2020-01-16 07:00:00 10.1 10 Sudeste 16 Sudeste 0 -- -- 95
2020-01-16 06:00:00 10.9 6 Sudeste 12 Sur 0 -- -- 93
2020-01-16 05:00:00 12.1 10 Sur 20 Sur 0 -- -- 94
2020-01-16 04:00:00 12.2 12 Sur 27 Sur 0 -- -- 95
2020-01-16 03:00:00 12.4 17 Sur 31 Sur 0 -- -- 95
2020-01-16 02:00:00 12.7 21 Sur 31 Sur 0 -- -- 96
2020-01-16 01:00:00 12.4 17 Sur 27 Sur 0 -- -- 95
2020-01-16 00:00:00 12.9 17 Sur 24 Sur 0 -- -- 95
2020-01-15 23:00:00 13 17 Sur 24 Sur 0 -- -- 93
2020-01-15 22:00:00 13.2 15 Sur 22 Sur 0 -- -- 91
2020-01-15 21:00:00 12.9 13 Sur 18 Sur 0 -- -- 92
2020-01-15 20:00:00 13.8 10 Sur 18 Sur 0 -- -- 90
2020-01-15 19:00:00 14.1 15 Sur 22 Sur 0 -- -- 90
2020-01-15 18:00:00 14.7 15 Sur 30 Sur 0 -- -- 86
2020-01-15 17:00:00 16 18 Sur 32 Sudoeste 0 -- -- 83
2020-01-15 16:00:00 15.6 21 Sudoeste 33 Sudoeste 0 -- -- 83
2020-01-15 15:00:00 16.8 23 Sudoeste 33 Sudoeste 0 -- -- 78
2020-01-15 14:00:00 15.5 22 Sudoeste 37 Sur 0 -- -- 85
2020-01-15 13:00:00 15.1 27 Sur 36 Sur 0 -- -- 83
2020-01-15 12:00:00 13.9 19 Sur 38 Sur 0 -- -- 89
2020-01-15 11:00:00 13.3 21 Sur 37 Sur 0 -- -- 89
2020-01-15 10:00:00 12.3 22 Sur 41 Sur 0 -- -- 90
2020-01-15 09:00:00 12.1 22 Sur 32 Sur 0 -- -- 88
2020-01-15 08:00:00 11.8 20 Sur 30 Sur 0 -- -- 87
2020-01-15 07:00:00 11.5 21 Sur 41 Sur 0 -- -- 86
2020-01-15 06:00:00 11.3 28 Sur 37 Sur 0 -- -- 85
2020-01-15 05:00:00 11.2 28 Sur 37 Sur 0 -- -- 85
2020-01-15 04:00:00 10.5 18 Sur 27 Sur 0 -- -- 87
2020-01-15 03:00:00 9.6 15 Sur 22 Sur 0 -- -- 90
2020-01-15 02:00:00 9.7 14 Sur 24 Sur 0 -- -- 89
2020-01-15 01:00:00 9.7 16 Sur 26 Sur 0 -- -- 90
2020-01-15 00:00:00 9.5 13 Sur 20 Sur 0 -- -- 90
2020-01-14 23:00:00 9.6 14 Sur 22 Sur 0 -- -- 90
2020-01-14 22:00:00 9.9 16 Sur 23 Sur 0 -- -- 89
2020-01-14 21:00:00 10.4 17 Sur 27 Sur 0 -- -- 87
2020-01-14 20:00:00 11 17 Sur 28 Sur 0 -- -- 85
2020-01-14 19:00:00 11.3 18 Sur 36 Sur 0 -- -- 85
2020-01-14 18:00:00 12.1 21 Sur 36 Sur 0 -- -- 80
2020-01-14 17:00:00 12.7 23 Sur 33 Sur 0 -- -- 78
2020-01-14 16:00:00 12.6 21 Sur 30 Sur 0 -- -- 74
2020-01-14 15:00:00 10.6 10 Sur 20 Sur 0 -- -- 85
2020-01-14 14:00:00 9.4 8 Sur 19 Sur 0 -- -- 93
2020-01-14 13:00:00 8.3 0 Calma 4 Noroeste 0 -- -- 84
2020-01-14 12:00:00 7.6 0 Calma 5 Sur 0 -- -- 84
2020-01-14 11:00:00 6.5 0 Calma 6 Este 0 -- -- 87
2020-01-14 10:00:00 4.9 3 Sudeste 6 Este 0 -- -- 91
2020-01-14 09:00:00 3.8 3 Sudeste 6 Sudeste 0 -- -- 95
2020-01-14 08:00:00 3.1 3 Sur 10 Sudeste 0 -- -- 94
2020-01-14 07:00:00 3.7 4 Este 9 Nordeste 0 -- -- 94
2020-01-14 06:00:00 3.6 5 Norte 15 Este 0 -- -- 94
2020-01-14 05:00:00 4.3 13 Este 16 Este 0 -- -- 89
2020-01-14 04:00:00 3.6 5 Este 9 Este 0 -- -- 91
2020-01-14 03:00:00 3.6 0 Calma 5 Sudeste 0 -- -- 89
2020-01-14 02:00:00 3.7 0 Calma 8 Sudeste 0 -- -- 90
2020-01-14 01:00:00 4.2 8 Este 13 Este 0 -- -- 87
2020-01-14 00:00:00 4.4 8 Este 11 Sudeste 0 -- -- 87
2020-01-13 23:00:00 5.4 0 Calma 12 Noroeste 0 -- -- 91
2020-01-13 22:00:00 6.6 4 Este 6 Sudeste 0 -- -- 83
2020-01-13 21:00:00 7.8 2 Sudoeste 9 Noroeste 0 -- -- 79
2020-01-13 20:00:00 9.3 9 Oeste 15 Sudoeste 0 -- -- 73
2020-01-13 19:00:00 10.6 5 Sur 9 Sur 0 -- -- 68
2020-01-13 18:00:00 12.6 5 Sur 11 Sudoeste 0 -- -- 65
2020-01-13 17:00:00 12.8 9 Sudoeste 13 Sudoeste 0 -- -- 62
2020-01-13 16:00:00 12.9 6 Sudoeste 13 Sudoeste 0 -- -- 62
2020-01-13 15:00:00 11.7 4 Sudoeste 10 Sudoeste 0 -- -- 66
2020-01-13 14:00:00 10.6 2 Oeste 9 Norte 0 -- -- 70
2020-01-13 13:00:00 8.2 4 Noroeste 8 Oeste 0 -- -- 77
2020-01-13 12:00:00 6.1 3 Noroeste 6 Noroeste 0 -- -- 83
2020-01-13 11:00:00 3.1 5 Norte 11 Norte 0 -- -- 95
2020-01-13 10:00:00 0.9 0 Calma 5 Sudeste 0 -- -- 97
2020-01-13 09:00:00 -0.4 3 Norte 7 Nordeste 0 -- -- 98
2020-01-13 08:00:00 -0.2 3 Sudeste 9 Nordeste 0 -- -- 96
2020-01-13 07:00:00 0.3 4 Norte 6 Nordeste 0 -- -- 96
2020-01-13 06:00:00 0.8 0 Calma 5 Sur 0 -- -- 95
2020-01-13 05:00:00 1.3 0 Calma 4 Este 0 -- -- 95
2020-01-13 04:00:00 1.5 0 Calma 7 Nordeste 0 -- -- 92
2020-01-13 03:00:00 2.9 0 Calma 4 Norte 0 -- -- 91
2020-01-13 02:00:00 3.1 0 Calma 4 Este 0 -- -- 89
2020-01-13 01:00:00 3.6 4 Sudeste 5 Sudeste 0 -- -- 86
2020-01-13 00:00:00 5 0 Calma 3 Sur 0 -- -- 87
2020-01-12 23:00:00 5.9 0 Calma 6 Este 0 -- -- 82
2020-01-12 22:00:00 7.1 0 Calma 6 Nordeste 0 -- -- 82
2020-01-12 21:00:00 8.3 0 Calma 4 Oeste 0 -- -- 82
2020-01-12 20:00:00 9.7 0 Calma 9 Este 0 -- -- 67
2020-01-12 19:00:00 11.2 6 Nordeste 8 Nordeste 0 -- -- 61
2020-01-12 18:00:00 13.4 5 Este 10 Este 0 -- -- 51
2020-01-12 17:00:00 13.8 6 Nordeste 13 Nordeste 0 -- -- 52
2020-01-12 16:00:00 14.7 3 Noroeste 12 Sudeste 0 -- -- 51
2020-01-12 15:00:00 13.7 4 Noroeste 9 Norte 0 -- -- 53
2020-01-12 14:00:00 12 5 Noroeste 9 Noroeste 0 -- -- 66
2020-01-12 13:00:00 9.9 5 Noroeste 9 Norte 0 -- -- 73
2020-01-12 12:00:00 7.9 0 Calma 6 Sur 0 -- -- 83
2020-01-12 11:00:00 5.4 2 Sudoeste 7 Norte 0 -- -- 86
2020-01-12 10:00:00 2.5 3 Nordeste 9 Nordeste 0 -- -- 92
2020-01-12 09:00:00 1.1 0 Calma 6 Nordeste 0 -- -- 96
2020-01-12 08:00:00 1.4 0 Calma 5 Norte 0 -- -- 95
2020-01-12 07:00:00 1.8 2 Nordeste 6 Norte 0 -- -- 95
2020-01-12 06:00:00 1.6 0 Calma 6 Nordeste 0 -- -- 92
2020-01-12 05:00:00 1.4 4 Este 6 Este 0 -- -- 93
2020-01-12 04:00:00 2.2 2 Norte 6 Norte 0 -- -- 92
2020-01-12 03:00:00 2.9 0 Calma 13 Norte 0 -- -- 89
2020-01-12 02:00:00 3.6 0 Calma 6 Norte 0 -- -- 90
2020-01-12 01:00:00 3.1 3 Nordeste 6 Sudeste 0 -- -- 89
2020-01-12 00:00:00 5.2 0 Calma 9 Nordeste 0 -- -- 81
2020-01-11 23:00:00 6.5 6 Nordeste 10 Nordeste 0 -- -- 77
2020-01-11 22:00:00 6.2 0 Calma 9 Nordeste 0 -- -- 77
2020-01-11 21:00:00 7.7 4 Nordeste 12 Nordeste 0 -- -- 72
2020-01-11 20:00:00 8.7 11 Nordeste 17 Nordeste 0 -- -- 68
2020-01-11 19:00:00 10.8 14 Nordeste 21 Nordeste 0 -- -- 60
2020-01-11 18:00:00 12.7 11 Nordeste 21 Norte 0 -- -- 56
2020-01-11 17:00:00 13.8 13 Nordeste 22 Nordeste 0 -- -- 52
2020-01-11 16:00:00 14 16 Este 26 Nordeste 0 -- -- 51
2020-01-11 15:00:00 13.7 18 Este 27 Este 0 -- -- 51
2020-01-11 14:00:00 13 16 Nordeste 28 Nordeste 0 -- -- 53
2020-01-11 13:00:00 12.2 12 Nordeste 24 Este 0 -- -- 57
2020-01-11 12:00:00 9.4 14 Nordeste 21 Norte 0 -- -- 75
2020-01-11 11:00:00 6.5 9 Norte 19 Nordeste 0 -- -- 80
2020-01-11 10:00:00 4.4 5 Nordeste 20 Norte 0 -- -- 85
2020-01-11 09:00:00 2.6 12 Nordeste 18 Nordeste 0 -- -- 91
2020-01-11 08:00:00 2.8 9 Nordeste 16 Nordeste 0 -- -- 90
2020-01-11 07:00:00 3.9 7 Nordeste 17 Nordeste 0 -- -- 85
2020-01-11 06:00:00 4.4 9 Nordeste 20 Nordeste 0 -- -- 84
2020-01-11 05:00:00 5.6 15 Nordeste 25 Nordeste 0 -- -- 78
2020-01-11 04:00:00 5.7 11 Nordeste 19 Nordeste 0 -- -- 78
2020-01-11 03:00:00 5.5 5 Nordeste 23 Nordeste 0 -- -- 79
2020-01-11 02:00:00 5.7 17 Nordeste 23 Nordeste 0 -- -- 79
2020-01-11 01:00:00 5.9 13 Nordeste 21 Nordeste 0 -- -- 80
2020-01-11 00:00:00 6.5 11 Nordeste 17 Nordeste 0 -- -- 81
2020-01-10 23:00:00 6.4 6 Nordeste 10 Nordeste 0 -- -- 84
2020-01-10 22:00:00 7.2 4 Nordeste 13 Norte 0 -- -- 82
2020-01-10 21:00:00 7.9 9 Norte 13 Norte 0 -- -- 84
2020-01-10 20:00:00 9.1 9 Nordeste 15 Nordeste 0 -- -- 80
2020-01-10 19:00:00 10.4 10 Nordeste 24 Nordeste 0 -- -- 75
2020-01-10 18:00:00 12.1 14 Nordeste 33 Nordeste 0 -- -- 69
2020-01-10 17:00:00 12.8 17 Nordeste 31 Nordeste 0 -- -- 61
2020-01-10 16:00:00 12.6 19 Nordeste 31 Nordeste 0 -- -- 64
2020-01-10 15:00:00 12.1 14 Nordeste 27 Nordeste 0 -- -- 63
2020-01-10 14:00:00 11.4 19 Nordeste 37 Nordeste 0 -- -- 65
2020-01-10 13:00:00 11.2 17 Nordeste 35 Norte 0 -- -- 63
2020-01-10 12:00:00 10.3 16 Norte 25 Norte 0 -- -- 67
2020-01-10 11:00:00 7.8 2 Sur 5 Sur 0 -- -- 85
2020-01-10 10:00:00 4.9 0 Calma 11 Sudeste 0 -- -- 93
2020-01-10 09:00:00 3.9 3 Este 10 Norte 0 -- -- 92
2020-01-10 08:00:00 4.7 8 Nordeste 14 Norte 0 -- -- 92
2020-01-10 07:00:00 5.4 9 Norte 19 Norte 0 -- -- 91
2020-01-10 06:00:00 6.4 14 Norte 22 Norte 0 -- -- 90
2020-01-10 05:00:00 6.8 12 Norte 22 Norte 0 -- -- 90
2020-01-10 04:00:00 7.1 12 Norte 19 Norte 0 -- -- 93
2020-01-10 03:00:00 7.7 12 Norte 19 Norte 0 -- -- 92
2020-01-10 02:00:00 8.1 9 Norte 12 Noroeste 0 -- -- 97
2020-01-10 01:00:00 9 8 Noroeste 20 Norte 0 -- -- 95
2020-01-10 00:00:00 9.9 6 Norte 17 Noroeste 0 -- -- 92
2020-01-09 23:00:00 11.5 0 Calma -- -- 0 -- -- 92
2020-01-09 22:00:00 12.1 0 Calma 9 Oeste 0 -- -- 96
2020-01-09 21:00:00 12.1 3 Oeste 6 Oeste 0 -- -- 91
2020-01-09 20:00:00 12.2 0 Calma 10 Norte 0 -- -- 88
2020-01-09 19:00:00 12.5 8 Norte 17 Norte 0 -- -- 89
2020-01-09 18:00:00 13.2 7 Oeste 10 Oeste 0 -- -- 76
2020-01-09 17:00:00 14 4 Sur 8 Sur 0 -- -- 70
2020-01-09 16:00:00 13.1 3 Sur 8 Sudoeste 0 -- -- 69
2020-01-09 15:00:00 11.4 4 Oeste 7 Sudoeste 0 -- -- 76
2020-01-09 14:00:00 8.7 4 Sudoeste 8 Sur 0 -- -- 98
2020-01-09 13:00:00 6.5 0 Calma 6 Oeste 0 -- -- 100
2020-01-09 12:00:00 5.6 0 Calma 7 Oeste 0 -- -- 100
2020-01-09 11:00:00 4.2 4 Norte 8 Noroeste 0 -- -- 100
2020-01-09 10:00:00 2.7 5 Sudeste 9 Sudeste 0.2 -- -- 100
2020-01-09 09:00:00 2.7 4 Sudeste 6 Sudeste 0 -- -- 99
2020-01-09 08:00:00 2.6 0 Calma 4 Noroeste 0 -- -- 100
2020-01-09 07:00:00 1.7 0 Calma 8 Este 0 -- -- 99
2020-01-09 06:00:00 1.9 5 Este 8 Este 0 -- -- 98
2020-01-09 05:00:00 3 4 Norte 8 Noroeste 0 -- -- 99
2020-01-09 04:00:00 3.4 0 Calma 6 Este 0 -- -- 97
2020-01-09 03:00:00 4 6 Este 8 Este 0 -- -- 97
2020-01-09 02:00:00 4.5 4 Norte 5 Norte 0 -- -- 96
2020-01-09 01:00:00 5.2 3 Este 9 Este 0 -- -- 93
2020-01-09 00:00:00 6.3 0 Calma 4 Noroeste 0 -- -- 93
2020-01-08 23:00:00 6.7 3 Noroeste 4 Noroeste 0 -- -- 89
2020-01-08 22:00:00 7.9 0 Calma 6 Norte 0 -- -- 83
2020-01-08 21:00:00 8.9 0 Calma 8 Norte 0 -- -- 79
2020-01-08 20:00:00 10.4 0 Calma 8 Este 0 -- -- 72
2020-01-08 19:00:00 11.8 6 Nordeste 9 Este 0 -- -- 64
2020-01-08 18:00:00 13.9 3 Este 7 Nordeste 0 -- -- 59
2020-01-08 17:00:00 15.2 3 Oeste 9 Norte 0 -- -- 59
2020-01-08 16:00:00 14.2 7 Noroeste 10 Noroeste 0 -- -- 59
2020-01-08 15:00:00 12.7 6 Noroeste 12 Norte 0 -- -- 75
2020-01-08 14:00:00 10.4 5 Norte 12 Nordeste 0 -- -- 86
2020-01-08 13:00:00 8 7 Norte 12 Norte 0 -- -- 93
2020-01-08 12:00:00 6.2 5 Norte 9 Norte 0 -- -- 100
2020-01-08 11:00:00 3.4 3 Norte 9 Norte 0 -- -- 100
2020-01-08 10:00:00 1.7 4 Nordeste 7 Nordeste 0 -- -- 100
2020-01-08 09:00:00 0.8 3 Norte 8 Norte 0 -- -- 99
2020-01-08 08:00:00 0.8 0 Calma 6 Este 0 -- -- 99
2020-01-08 07:00:00 2 4 Sudeste 6 Norte 0 -- -- 99
2020-01-08 06:00:00 3.3 0 Calma 4 Nordeste 0 -- -- 98
2020-01-08 05:00:00 3.7 0 Calma 5 Este 0 -- -- 98
2020-01-08 04:00:00 3.5 0 Calma 5 Nordeste 0 -- -- 96
2020-01-08 03:00:00 4.3 4 Norte 6 Norte 0 -- -- 97
2020-01-08 02:00:00 4.3 0 Calma 5 Norte 0 -- -- 95
2020-01-08 01:00:00 5.4 3 Noroeste 4 Norte 0 -- -- 95
2020-01-08 00:00:00 6.1 2 Este 9 Norte 0 -- -- 93
2020-01-07 23:00:00 6.8 3 Norte 8 Nordeste 0 -- -- 89
2020-01-07 22:00:00 8.1 3 Nordeste 9 Nordeste 0 -- -- 89
2020-01-07 21:00:00 8.3 6 Norte 8 Norte 0 -- -- 86
2020-01-07 20:00:00 10.2 6 Nordeste 17 Nordeste 0 -- -- 79
2020-01-07 19:00:00 11 10 Nordeste 14 Norte 0 -- -- 80
2020-01-07 18:00:00 13.3 10 Norte 17 Norte 0 -- -- 73
2020-01-07 17:00:00 14.3 10 Norte 15 Norte 0 -- -- 71
2020-01-07 16:00:00 14.2 9 Norte 14 Norte 0 -- -- 73
2020-01-07 15:00:00 13.6 8 Norte 13 Nordeste 0 -- -- 76
2020-01-07 14:00:00 11.8 6 Norte 16 Nordeste 0 -- -- 83
2020-01-07 13:00:00 8.1 8 Norte 14 Norte 0 -- -- 100
2020-01-07 12:00:00 5.2 6 Nordeste 13 Norte 0 -- -- 100
2020-01-07 11:00:00 3.3 5 Nordeste 10 Nordeste 0 -- -- 100
2020-01-07 10:00:00 2.8 7 Nordeste 13 Nordeste 0 -- -- 100
2020-01-07 09:00:00 2.3 0 Calma 9 Este 0 -- -- 99
2020-01-07 08:00:00 2.5 5 Norte 11 Nordeste 0 -- -- 99
2020-01-07 07:00:00 3.1 2 Norte 9 Norte 0 -- -- 98
2020-01-07 06:00:00 3.1 2 Nordeste 9 Norte 0 -- -- 97
2020-01-07 05:00:00 3 0 Calma 7 Nordeste 0 -- -- 97
2020-01-07 04:00:00 3.4 0 Calma 6 Nordeste 0 -- -- 97
2020-01-07 03:00:00 4.3 0 Calma 6 Noroeste 0 -- -- 97
2020-01-07 02:00:00 4.6 5 Norte 6 Nordeste 0 -- -- 97
2020-01-07 01:00:00 5 2 Nordeste 5 Sudeste 0 -- -- 95
2020-01-07 00:00:00 5.6 2 Sur 7 Nordeste 0 -- -- 91
2020-01-06 23:00:00 7.4 0 Calma 13 Nordeste 0 -- -- 89
2020-01-06 22:00:00 8.8 9 Nordeste 12 Norte 0 -- -- 85
2020-01-06 21:00:00 8.7 7 Nordeste 12 Norte 0 -- -- 86
2020-01-06 20:00:00 9.4 9 Norte 13 Nordeste 0 -- -- 84
2020-01-06 19:00:00 10.7 9 Nordeste 11 Nordeste 0 -- -- 81
2020-01-06 18:00:00 12.9 7 Nordeste 15 Norte 0 -- -- 75
2020-01-06 17:00:00 13.9 10 Norte 17 Norte 0 -- -- 70
2020-01-06 16:00:00 14.4 10 Norte 17 Norte 0 -- -- 67
2020-01-06 15:00:00 14 7 Norte 14 Norte 0 -- -- 72
2020-01-06 14:00:00 12.7 6 Oeste 9 Oeste 0 -- -- 77
2020-01-06 13:00:00 11.1 6 Sur 9 Sur 0 -- -- 83
2020-01-06 12:00:00 8.7 0 Calma 8 Sudoeste 0 -- -- 89
2020-01-06 11:00:00 6.7 2 Oeste 12 Este 0 -- -- 95
2020-01-06 10:00:00 4.2 4 Nordeste 9 Este 0 -- -- 99